createdAt,value
2022-10-12T00:00:30.191Z,3.45
2022-10-12T00:03:03.061Z,3.45
2022-10-12T00:05:36.511Z,3.77
2022-10-12T00:08:09.935Z,3.22
2022-10-12T00:10:46.374Z,3.35
2022-10-12T00:13:19.765Z,3.47
2022-10-12T00:15:54.483Z,3.83
2022-10-12T00:18:27.394Z,4.00
2022-10-12T00:21:12.298Z,4.75
2022-10-12T00:23:46.406Z,4.78
2022-10-12T00:29:02.572Z,4.80
2022-10-12T00:31:35.533Z,3.92
2022-10-12T00:34:09.009Z,3.80
2022-10-12T00:36:42.047Z,4.35
2022-10-12T00:39:14.961Z,4.95
2022-10-12T00:41:47.745Z,4.33
2022-10-12T00:44:45.084Z,5.22
2022-10-12T00:47:34.249Z,4.20
2022-10-12T00:50:28.120Z,4.50
2022-10-12T00:53:13.184Z,3.92
2022-10-12T00:55:55.805Z,4.05
2022-10-12T00:58:33.606Z,4.85
2022-10-12T01:01:07.808Z,4.50
2022-10-12T01:03:40.969Z,3.83
2022-10-12T01:06:14.312Z,4.42
2022-10-12T01:08:48.159Z,4.00
2022-10-12T01:11:20.978Z,4.03
2022-10-12T01:13:54.159Z,4.10
2022-10-12T01:16:46.457Z,4.55
2022-10-12T01:19:32.932Z,4.50
2022-10-12T01:22:09.734Z,4.40
2022-10-12T01:25:00.515Z,4.20
2022-10-12T01:27:54.459Z,4.78
2022-10-12T01:30:30.897Z,4.10
2022-10-12T01:33:14.078Z,4.45
2022-10-12T01:36:03.807Z,3.70
2022-10-12T01:38:59.079Z,4.10
2022-10-12T01:41:39.442Z,3.50
2022-10-12T01:44:12.252Z,3.52
2022-10-12T01:46:46.444Z,3.98
2022-10-12T01:49:23.808Z,4.30
2022-10-12T01:52:13.851Z,3.83
2022-10-12T01:55:29.289Z,4.08
2022-10-12T01:58:38.168Z,3.85
2022-10-12T02:01:33.958Z,4.05
2022-10-12T02:04:31.591Z,4.00
2022-10-12T02:07:08.432Z,3.85
2022-10-12T02:09:43.468Z,3.75
2022-10-12T02:12:20.169Z,4.15
2022-10-12T02:14:57.750Z,3.77
2022-10-12T02:17:32.975Z,3.80
2022-10-12T02:20:07.666Z,4.08
2022-10-12T02:22:41.819Z,4.12
2022-10-12T02:25:18.297Z,5.37
2022-10-12T02:28:01.414Z,5.10
2022-10-12T02:30:41.532Z,4.65
2022-10-12T02:33:21.833Z,4.08
2022-10-12T02:36:01.909Z,4.75
2022-10-12T02:38:42.146Z,4.70
2022-10-12T02:41:20.723Z,5.17
2022-10-12T02:44:01.914Z,5.05
2022-10-12T02:46:35.911Z,5.03
2022-10-12T02:49:09.481Z,4.60
2022-10-12T02:51:44.012Z,4.10
2022-10-12T02:54:17.778Z,4.53
2022-10-12T02:56:50.847Z,4.47
2022-10-12T02:59:23.891Z,4.67
2022-10-12T03:01:57.126Z,4.65
2022-10-12T03:04:30.095Z,4.42
2022-10-12T03:07:03.902Z,4.80
2022-10-12T03:09:37.085Z,3.90
2022-10-12T03:12:10.769Z,4.45
2022-10-12T03:14:43.790Z,4.00
2022-10-12T03:17:17.738Z,4.72
2022-10-12T03:19:51.185Z,4.83
2022-10-12T03:22:24.224Z,4.40
2022-10-12T03:24:59.402Z,4.70
2022-10-12T03:27:32.517Z,4.33
2022-10-12T03:30:05.959Z,4.53
2022-10-12T03:32:40.777Z,4.33
2022-10-12T03:35:14.184Z,5.08
2022-10-12T03:37:47.274Z,5.17
2022-10-12T03:40:20.285Z,4.85
2022-10-12T03:42:53.072Z,5.05
2022-10-12T03:45:26.596Z,5.65
2022-10-12T03:48:03.859Z,5.25
2022-10-12T03:50:35.226Z,5.08
2022-10-12T03:53:08.627Z,5.53
2022-10-12T03:55:42.839Z,5.72
2022-10-12T03:58:16.242Z,5.83
2022-10-12T04:00:49.410Z,4.33
2022-10-12T04:03:23.009Z,6.25
2022-10-12T04:05:58.095Z,4.78
2022-10-12T04:08:31.718Z,4.55
2022-10-12T04:11:04.794Z,4.15
2022-10-12T04:13:38.738Z,4.20
2022-10-12T04:16:12.177Z,4.15
2022-10-12T04:18:46.414Z,4.12
2022-10-12T04:21:19.770Z,4.08
2022-10-12T04:23:52.630Z,3.95
2022-10-12T04:26:25.486Z,4.17
2022-10-12T04:28:59.342Z,8.08
2022-10-12T04:31:33.174Z,3.70
2022-10-12T04:34:07.745Z,3.67
2022-10-12T04:36:41.452Z,3.37
2022-10-12T04:39:14.462Z,3.67
2022-10-12T04:41:47.988Z,3.33
2022-10-12T04:44:21.206Z,3.65
2022-10-12T04:46:54.074Z,3.83
2022-10-12T04:49:27.449Z,3.83
2022-10-12T04:52:00.242Z,3.70
2022-10-12T04:54:34.553Z,3.83
2022-10-12T04:57:07.353Z,4.00
2022-10-12T04:59:40.739Z,2.98
2022-10-12T05:02:13.695Z,3.60
2022-10-12T05:07:19.869Z,3.10
2022-10-12T05:09:54.033Z,2.73
2022-10-12T05:12:27.029Z,2.20
2022-10-12T05:17:33.112Z,2.70
2022-10-12T05:20:08.242Z,2.60
2022-10-12T05:22:42.269Z,2.75
2022-10-12T05:25:15.294Z,2.92
2022-10-12T05:27:48.223Z,2.77
2022-10-12T05:30:21.191Z,2.47
2022-10-12T05:32:55.227Z,2.50
2022-10-12T05:35:28.290Z,2.55
2022-10-12T05:38:01.568Z,3.90
2022-10-12T05:40:34.614Z,3.65
2022-10-12T05:43:07.779Z,2.85
2022-10-12T05:45:40.538Z,3.30
2022-10-12T05:48:13.386Z,2.90
2022-10-12T05:50:47.131Z,3.40
2022-10-12T05:53:20.337Z,4.45
2022-10-12T05:55:59.578Z,3.70
2022-10-12T05:58:32.892Z,3.80
2022-10-12T06:01:11.826Z,3.90
2022-10-12T06:03:44.835Z,4.40
2022-10-12T06:06:19.277Z,4.12
2022-10-12T06:08:52.097Z,4.05
2022-10-12T06:11:26.220Z,3.80
2022-10-12T06:13:59.582Z,3.40
2022-10-12T06:16:33.305Z,3.92
2022-10-12T06:19:06.974Z,3.22
2022-10-12T06:21:41.154Z,2.90
2022-10-12T06:24:14.245Z,3.60
2022-10-12T06:26:47.870Z,3.45
2022-10-12T06:29:22.507Z,4.22
2022-10-12T06:31:55.537Z,4.90
2022-10-12T06:34:29.133Z,4.05
2022-10-12T06:37:02.351Z,3.25
2022-10-12T06:39:35.598Z,3.52
2022-10-12T06:42:09.670Z,3.20
2022-10-12T06:44:44.953Z,3.17
2022-10-12T06:47:18.626Z,3.90
2022-10-12T06:49:51.548Z,3.72
2022-10-12T06:52:24.571Z,3.47
2022-10-12T06:54:58.233Z,2.58
2022-10-12T06:57:31.698Z,3.35
2022-10-12T07:00:05.016Z,3.58
2022-10-12T07:02:38.430Z,3.12
2022-10-12T07:05:11.706Z,3.30
2022-10-12T07:07:46.607Z,4.00
2022-10-12T07:10:21.020Z,3.52
2022-10-12T07:12:54.174Z,4.72
2022-10-12T07:15:27.171Z,4.30
2022-10-12T07:18:01.569Z,3.62
2022-10-12T07:20:34.730Z,3.40
2022-10-12T07:23:08.226Z,3.05
2022-10-12T07:25:41.956Z,2.83
2022-10-12T07:28:15.237Z,3.17
2022-10-12T07:30:50.364Z,2.90
2022-10-12T07:33:23.195Z,3.92
2022-10-12T07:36:13.245Z,2.85
2022-10-12T07:38:32.045Z,3.17
2022-10-12T07:41:06.613Z,2.70
2022-10-12T07:43:39.532Z,3.12
2022-10-12T07:46:12.824Z,2.87
2022-10-12T07:48:50.188Z,4.10
2022-10-12T07:51:21.179Z,3.22
2022-10-12T07:53:54.360Z,2.95
2022-10-12T07:56:29.063Z,3.12
2022-10-12T07:59:02.448Z,3.70
2022-10-12T08:01:36.022Z,2.62
2022-10-12T08:04:09.156Z,2.67
2022-10-12T08:06:44.511Z,2.60
2022-10-12T08:09:18.020Z,2.35
2022-10-12T08:11:51.135Z,2.27
2022-10-12T08:14:24.865Z,2.10
2022-10-12T08:16:58.289Z,2.37
2022-10-12T08:19:35.334Z,2.17
2022-10-12T08:22:06.821Z,2.17
2022-10-12T08:24:40.343Z,2.12
2022-10-12T08:27:13.537Z,1.90
2022-10-12T08:29:48.139Z,1.67
2022-10-12T08:32:21.027Z,2.12
2022-10-12T08:34:54.339Z,2.12
2022-10-12T08:37:29.891Z,2.37
2022-10-12T08:40:03.746Z,1.82
2022-10-12T08:42:44.689Z,2.50
2022-10-12T08:45:30.594Z,1.90
2022-10-12T08:48:10.473Z,1.70
2022-10-12T08:50:50.815Z,1.80
2022-10-12T08:53:31.196Z,1.52
2022-10-12T08:56:04.575Z,1.52
2022-10-12T08:58:41.815Z,1.75
2022-10-12T09:01:39.166Z,1.77
2022-10-12T09:04:48.177Z,1.90
2022-10-12T09:07:42.934Z,1.72
2022-10-12T09:10:41.177Z,1.72
2022-10-12T09:13:50.258Z,1.72
2022-10-12T09:16:29.175Z,2.02
2022-10-12T09:19:07.325Z,1.40
2022-10-12T09:21:41.763Z,1.55
2022-10-12T09:27:00.786Z,2.15
2022-10-12T09:29:34.344Z,1.62
2022-10-12T09:32:31.590Z,1.70
2022-10-12T09:35:05.396Z,1.35
2022-10-12T09:37:39.237Z,2.02
2022-10-12T09:40:33.397Z,1.80
2022-10-12T09:43:06.909Z,1.50
2022-10-12T09:45:40.487Z,1.40
2022-10-12T09:48:20.809Z,2.10
2022-10-12T09:50:58.337Z,1.70
2022-10-12T09:53:41.055Z,1.40
2022-10-12T09:56:24.464Z,2.02
2022-10-12T09:59:05.689Z,1.50
2022-10-12T10:01:38.837Z,1.60
2022-10-12T10:04:18.333Z,1.82
2022-10-12T10:06:51.590Z,1.30
2022-10-12T10:09:37.240Z,1.70
2022-10-12T10:12:25.667Z,1.75
2022-10-12T10:15:00.276Z,1.60
2022-10-12T10:22:49.138Z,1.55
2022-10-12T10:25:24.524Z,1.50
2022-10-12T10:28:24.279Z,1.92
2022-10-12T10:31:02.731Z,1.20
2022-10-12T10:33:37.917Z,1.20
2022-10-12T10:36:24.791Z,1.12
2022-10-12T10:39:05.635Z,1.50
2022-10-12T10:41:41.539Z,1.82
2022-10-12T10:44:34.881Z,1.42
2022-10-12T10:47:13.464Z,1.95
2022-10-12T10:49:59.490Z,1.85
2022-10-12T10:52:37.135Z,1.40
2022-10-12T10:55:23.128Z,1.32
2022-10-12T10:58:07.965Z,1.65
2022-10-12T11:00:43.771Z,2.10
2022-10-12T11:03:45.960Z,3.02
2022-10-12T11:06:28.999Z,1.98
2022-10-12T11:09:25.969Z,1.73
2022-10-12T11:12:09.509Z,1.62
2022-10-12T11:14:46.795Z,1.45
2022-10-12T11:17:25.573Z,1.52
2022-10-12T11:20:44.789Z,1.70
2022-10-12T11:23:40.092Z,1.55
2022-10-12T11:26:23.287Z,1.27
2022-10-12T11:29:00.405Z,2.02
2022-10-12T11:31:40.264Z,1.40
2022-10-12T11:34:19.174Z,1.67
2022-10-12T11:37:18.666Z,1.70
2022-10-12T11:39:45.163Z,1.47
2022-10-12T11:42:23.134Z,1.60
2022-10-12T11:44:56.317Z,1.90
2022-10-12T11:47:45.831Z,1.67
2022-10-12T11:50:37.360Z,1.98
2022-10-12T11:53:21.252Z,1.55
2022-10-12T11:56:10.986Z,1.62
2022-10-12T11:59:00.554Z,2.00
2022-10-12T12:01:52.999Z,1.37
2022-10-12T12:04:48.256Z,1.65
2022-10-12T12:07:42.719Z,1.55
2022-10-12T12:10:35.564Z,1.55
2022-10-12T12:13:23.629Z,1.10
2022-10-12T12:16:01.326Z,1.40
2022-10-12T12:18:56.688Z,1.40
2022-10-12T12:21:29.917Z,1.20
2022-10-12T12:24:03.045Z,1.22
2022-10-12T12:26:36.533Z,1.50
2022-10-12T12:29:28.370Z,1.10
2022-10-12T12:32:02.791Z,1.00
2022-10-12T12:34:36.653Z,2.22
2022-10-12T12:39:55.135Z,1.47
2022-10-12T12:42:31.490Z,1.30
2022-10-12T12:45:38.169Z,1.65
2022-10-12T12:48:13.289Z,1.27
2022-10-12T12:50:46.964Z,1.10
2022-10-12T12:53:22.027Z,1.20
2022-10-12T12:56:27.069Z,1.60
2022-10-12T12:59:32.579Z,1.25
2022-10-12T13:02:16.313Z,1.30
2022-10-12T13:05:06.032Z,1.30
2022-10-12T13:07:59.127Z,1.30
2022-10-12T13:11:03.877Z,1.10
2022-10-12T13:13:50.234Z,1.30
2022-10-12T13:19:16.579Z,1.02
2022-10-12T13:21:51.889Z,1.40
2022-10-12T13:24:34.553Z,1.35
2022-10-12T13:27:27.432Z,1.15
2022-10-12T13:30:14.051Z,1.50
2022-10-12T13:33:06.631Z,1.80
2022-10-12T13:35:51.599Z,1.62
2022-10-12T13:38:30.504Z,3.67
2022-10-12T13:41:15.993Z,2.15
2022-10-12T13:44:05.814Z,1.40
2022-10-12T13:49:46.012Z,1.62
2022-10-12T13:52:32.831Z,1.60
2022-10-12T13:55:17.571Z,1.60
2022-10-12T13:57:50.913Z,1.52
2022-10-12T14:00:30.477Z,2.02
2022-10-12T14:03:09.484Z,1.87
2022-10-12T14:05:47.641Z,2.15
2022-10-12T14:08:27.438Z,1.42
2022-10-12T14:11:02.001Z,1.55
2022-10-12T14:13:36.782Z,1.50
2022-10-12T14:16:10.151Z,1.37
2022-10-12T14:18:46.335Z,2.00
2022-10-12T14:21:34.574Z,1.77
2022-10-12T14:24:11.928Z,1.77
2022-10-12T14:26:48.198Z,2.20
2022-10-12T14:29:47.395Z,1.98
2022-10-12T14:32:26.759Z,2.00
2022-10-12T14:35:27.821Z,1.55
2022-10-12T14:38:01.871Z,1.47
2022-10-12T14:40:40.225Z,1.60
2022-10-12T14:43:20.870Z,1.90
2022-10-12T14:45:54.617Z,1.40
2022-10-12T14:48:28.067Z,1.37
2022-10-12T14:51:01.108Z,1.87
2022-10-12T14:53:34.251Z,9.83
2022-10-12T14:56:09.646Z,7.42
2022-10-12T14:58:42.956Z,2.25
2022-10-12T15:01:15.844Z,1.60
2022-10-12T15:03:49.949Z,1.70
2022-10-12T15:06:23.110Z,2.15
2022-10-12T15:08:56.045Z,1.90
2022-10-12T15:11:29.904Z,2.05
2022-10-12T15:14:02.772Z,2.20
2022-10-12T15:16:36.066Z,2.02
2022-10-12T15:19:09.941Z,2.20
2022-10-12T15:21:43.796Z,2.58
2022-10-12T15:24:17.248Z,2.58
2022-10-12T15:26:50.414Z,2.80
2022-10-12T15:29:24.058Z,2.12
2022-10-12T15:31:58.621Z,2.65
2022-10-12T15:34:31.442Z,2.30
2022-10-12T15:37:08.827Z,2.30
2022-10-12T15:39:41.869Z,1.37
2022-10-12T15:42:17.422Z,1.90
2022-10-12T15:44:51.021Z,2.70
2022-10-12T15:47:23.948Z,1.87
2022-10-12T15:49:56.895Z,2.15
2022-10-12T15:52:30.505Z,2.73
2022-10-12T15:55:05.108Z,2.80
2022-10-12T15:57:37.936Z,2.92
2022-10-12T16:00:12.516Z,3.92
2022-10-12T16:02:44.932Z,3.80
2022-10-12T16:05:28.315Z,2.85
2022-10-12T16:08:02.577Z,2.40
2022-10-12T16:10:42.121Z,2.65
2022-10-12T16:13:16.900Z,2.92
2022-10-12T16:15:50.574Z,2.92
2022-10-12T16:18:23.486Z,3.45
2022-10-12T16:20:58.397Z,3.67
2022-10-12T16:23:35.651Z,3.30
2022-10-12T16:26:12.919Z,2.90
2022-10-12T16:28:45.747Z,3.02
2022-10-12T16:31:19.533Z,3.70
2022-10-12T16:33:52.316Z,4.97
2022-10-12T16:36:26.135Z,6.58
2022-10-12T16:39:00.070Z,8.13
2022-10-12T16:41:34.271Z,8.30
2022-10-12T16:44:08.472Z,13.08
2022-10-12T16:46:41.617Z,10.58
2022-10-12T16:49:15.166Z,8.17
2022-10-12T16:51:49.901Z,7.30
2022-10-12T16:54:25.294Z,7.78
2022-10-12T16:57:03.561Z,7.47
2022-10-12T16:59:38.707Z,7.35
2022-10-12T17:02:14.381Z,7.90
2022-10-12T17:04:48.636Z,7.60
2022-10-12T17:07:22.404Z,7.55
2022-10-12T17:09:59.189Z,7.00
2022-10-12T17:12:32.306Z,7.12
2022-10-12T17:15:07.376Z,7.62
2022-10-12T17:17:41.357Z,7.92
2022-10-12T17:20:15.782Z,8.30
2022-10-12T17:22:49.305Z,7.17
2022-10-12T17:25:22.375Z,6.90
2022-10-12T17:27:55.560Z,6.55
2022-10-12T17:30:28.721Z,7.03
2022-10-12T17:33:01.611Z,5.45
2022-10-12T17:35:34.894Z,5.35
2022-10-12T17:38:11.479Z,5.62
2022-10-12T17:40:44.567Z,5.45
2022-10-12T17:43:18.018Z,4.97
2022-10-12T17:45:51.181Z,4.60
2022-10-12T17:48:26.434Z,4.75
2022-10-12T17:51:06.328Z,4.47
2022-10-12T17:53:42.853Z,4.22
2022-10-12T17:56:19.014Z,4.22
2022-10-12T17:59:01.320Z,3.90
2022-10-12T18:01:35.665Z,4.05
2022-10-12T18:04:09.218Z,4.00
2022-10-12T18:06:42.697Z,3.95
2022-10-12T18:09:15.986Z,3.70
2022-10-12T18:11:49.275Z,3.30
2022-10-12T18:14:23.937Z,3.33
2022-10-12T18:16:58.590Z,3.22
2022-10-12T18:19:32.929Z,3.80
2022-10-12T18:22:06.128Z,3.95
2022-10-12T18:24:40.744Z,2.90
2022-10-12T18:27:14.150Z,3.27
2022-10-12T18:29:47.412Z,3.00
2022-10-12T18:32:21.095Z,3.42
2022-10-12T18:34:54.928Z,3.90
2022-10-12T18:37:29.065Z,3.92
2022-10-12T18:40:02.318Z,3.77
2022-10-12T18:42:36.061Z,3.77
2022-10-12T18:45:10.330Z,3.62
2022-10-12T18:47:43.312Z,4.12
2022-10-12T18:50:16.554Z,3.50
2022-10-12T18:52:49.574Z,4.30
2022-10-12T18:55:23.242Z,5.08
2022-10-12T18:57:56.222Z,4.72
2022-10-12T19:00:29.154Z,5.25
2022-10-12T19:03:03.287Z,4.90
2022-10-12T19:05:36.343Z,3.42
2022-10-12T19:08:09.963Z,4.15
2022-10-12T19:10:43.812Z,4.22
2022-10-12T19:13:17.199Z,3.98
2022-10-12T19:15:50.318Z,4.75
2022-10-12T19:18:23.904Z,4.22
2022-10-12T19:21:00.017Z,3.83
2022-10-12T19:23:33.626Z,3.52
2022-10-12T19:26:12.438Z,3.83
2022-10-12T19:28:46.704Z,3.85
2022-10-12T19:31:35.299Z,3.87
2022-10-12T19:34:12.622Z,3.83
2022-10-12T19:36:46.703Z,4.62
2022-10-12T19:39:24.304Z,6.17
2022-10-12T19:41:57.522Z,4.00
2022-10-12T19:44:30.440Z,3.50
2022-10-12T19:47:03.860Z,3.98
2022-10-12T19:49:39.171Z,4.60
2022-10-12T19:52:11.807Z,6.35
2022-10-12T19:54:44.891Z,5.25
2022-10-12T19:57:18.527Z,5.62
2022-10-12T19:59:52.845Z,4.80
2022-10-12T20:02:25.933Z,4.12
2022-10-12T20:04:58.929Z,4.37
2022-10-12T20:07:31.931Z,4.50
2022-10-12T20:10:08.192Z,4.05
2022-10-12T20:12:41.701Z,3.20
2022-10-12T20:15:15.131Z,3.37
2022-10-12T20:17:48.348Z,3.37
2022-10-12T20:20:22.323Z,4.10
2022-10-12T20:22:55.283Z,3.72
2022-10-12T20:25:28.168Z,3.33
2022-10-12T20:28:02.686Z,3.52
2022-10-12T20:30:35.711Z,3.15
2022-10-12T20:33:08.851Z,3.55
2022-10-12T20:35:49.951Z,3.27
2022-10-12T20:38:23.743Z,3.33
2022-10-12T20:41:15.912Z,3.45
2022-10-12T20:43:49.894Z,3.37
2022-10-12T20:46:22.964Z,3.30
2022-10-12T20:48:59.463Z,3.27
2022-10-12T20:51:40.017Z,3.00
2022-10-12T20:54:19.231Z,3.17
2022-10-12T20:56:52.309Z,2.70
2022-10-12T20:59:25.659Z,3.70
2022-10-12T21:02:01.741Z,3.02
2022-10-12T21:04:38.538Z,4.22
2022-10-12T21:07:16.474Z,3.42
2022-10-12T21:09:49.835Z,3.55
2022-10-12T21:12:23.125Z,3.00
2022-10-12T21:14:57.574Z,2.87
2022-10-12T21:17:30.830Z,3.37
2022-10-12T21:20:05.211Z,3.42
2022-10-12T21:22:38.932Z,3.60
2022-10-12T21:25:12.109Z,2.87
2022-10-12T21:27:45.235Z,3.35
2022-10-12T21:30:18.310Z,3.08
2022-10-12T21:32:51.262Z,3.37
2022-10-12T21:35:24.684Z,3.30
2022-10-12T21:37:57.596Z,3.00
2022-10-12T21:40:32.116Z,3.05
2022-10-12T21:43:05.553Z,3.60
2022-10-12T21:45:39.155Z,3.58
2022-10-12T21:48:12.546Z,2.65
2022-10-12T21:50:46.082Z,3.00
2022-10-12T21:53:19.007Z,3.30
2022-10-12T21:55:52.089Z,2.87
2022-10-12T21:58:25.286Z,2.62
2022-10-12T22:01:14.250Z,3.30
2022-10-12T22:03:49.972Z,3.08
2022-10-12T22:06:24.804Z,5.12
2022-10-12T22:09:08.063Z,4.90
2022-10-12T22:11:42.916Z,5.17
2022-10-12T22:14:19.481Z,4.22
2022-10-12T22:16:52.228Z,4.65
2022-10-12T22:19:25.178Z,3.60
2022-10-12T22:21:58.112Z,3.70
2022-10-12T22:24:32.737Z,3.85
2022-10-12T22:27:05.649Z,4.28
2022-10-12T22:29:38.732Z,4.35
2022-10-12T22:32:11.699Z,3.65
2022-10-12T22:34:44.513Z,3.98
2022-10-12T22:37:17.396Z,3.70
2022-10-12T22:39:50.235Z,3.20
2022-10-12T22:42:23.176Z,3.30
2022-10-12T22:44:56.947Z,2.80
2022-10-12T22:47:29.958Z,3.17
2022-10-12T22:52:36.759Z,2.80
2022-10-12T22:55:10.999Z,3.73
2022-10-12T22:57:43.789Z,2.52
2022-10-12T23:00:17.814Z,3.10
2022-10-12T23:02:51.530Z,3.20
2022-10-12T23:05:24.460Z,3.58
2022-10-12T23:07:59.312Z,2.75
2022-10-12T23:10:33.325Z,3.20
2022-10-12T23:13:06.773Z,3.10
2022-10-12T23:15:39.861Z,3.20
2022-10-12T23:18:13.614Z,2.75
2022-10-12T23:20:46.431Z,3.02
2022-10-12T23:23:19.385Z,2.75
2022-10-12T23:25:54.124Z,2.95
2022-10-12T23:28:27.446Z,3.05
2022-10-12T23:31:00.422Z,3.45
2022-10-12T23:33:33.907Z,3.37
2022-10-12T23:36:13.705Z,3.00
2022-10-12T23:38:47.061Z,3.33
2022-10-12T23:41:20.152Z,3.35
2022-10-12T23:43:53.183Z,3.52
2022-10-12T23:46:26.517Z,2.65
2022-10-12T23:49:01.521Z,3.33
2022-10-12T23:51:34.940Z,3.22
2022-10-12T23:54:07.986Z,3.30
2022-10-12T23:56:41.306Z,2.77
2022-10-12T23:59:14.570Z,2.72
